ROMMA est une association bénévole à but non lucratif. Votre soutien est indispensable : ADHERER à ROMMA ou FAIRE un DON

Crest - (26, Drôme)

Vallée de la Drôme (315 m)   Longitude: 5°2' E   Latitude: 44°44' N Station partenaire n°62
 

Détail journalier du     <<     >>

Température Precipitation Humidité Pression Vent Dir Rafale Dir. rafale Ensol.
Heure (°C) (mm) (%) (hPa) (km/h) (km/h) (min)
01:00 18.207210192---6SSO0
02:00 16.508110201S6SE0
03:00 16.708010191---5S0
04:00 15.608510191---5SSE0
05:00 15.5085101905ESE0
06:00 15.2085101903ESE0
07:00 15.108410191ESE8SE0
08:00 15.308610191SE6SE1
09:00 18.207610193SE10SE30
10:00 21.706210193ESE8SE60
11:00 24.905210193ESE8ESE60
12:00 26.704710183SSE13SSE60
13:00 27.904510183SE13SE60
14:00 28.903610175ESE18ESE47
15:00 30.003010175SE19ESE60
16:00 31.402710165ESE16ESE60
17:00 31.902210163S15SSE60
18:00 30.802410164NE15NE60
19:00 29.402910156NE16NE60
20:00 27.003310154SSO10SSO4
21:00 24.803810154SSO8SSO0
22:00 24.804510162SE18ESE0
23:00 23.804910162ESE16SE0
minuit 20.505710171ESE5ESE0

Graphique du 24-08-2019

 

Serveur OMMA